KTMB/TMB METAR and TAF weather

Enter ICAO airport designator
Station Type Date Time Source
KTMB METAR 2020/02/19 14:49 UTC NOAA

KTMB 191449Z 08008KT 10SM -RA BKN023 BKN031 26/23 A3019 RMK AO2 RAB35 P0000


Station Type Date Time Source
KTMB Decoded METAR 2020/02/19 14:49 UTC NOAA

KENDALL-TAMIAMI EXEC AIRPORT , FL, United States (KTMB) 25-39N 080-26W 2M
Feb 19, 2020 - 09:49 AM EST / 2020.02.19 1449 UTC
Wind: from the E (080 degrees) at 9 MPH (8 KT):0
Visibility: 10 mile(s):0
Sky conditions: mostly cloudy
Weather: light rain
Precipitation last hour: A trace
Temperature: 78 F (26 C)
Dew Point: 73 F (23 C)
Relative Humidity: 83%
Pressure (altimeter): 30.19 in. Hg (1022 hPa)
ob: KTMB 191449Z 08008KT 10SM -RA BKN023 BKN031 26/23 A3019 RMK AO2 RAB35 P0000
cycle: 15

Station Type Date Time Source
KTMB TAF 2020/02/19 14:22 UTC NOAA

TAF
AMD KTMB 191419Z 1914/2012 13010KT P6SM SCT025 SCT050
FM200200 12004KT P6SM FEW025 SCT100

Example: see airport list